Holts, Mississippi
Current Conditions -  °F | °C
As of 3:35 PM on Wednesday 26 Nov 2014 (Local Time) from KCRX Reporting Station
Light Rain Light Rain  
Wind Chill: 48°   Ceiling: 5500
Heat Index: 48°   Visibility: 10mi
Dew Point: 32°   Wind: 3mph
Humidity: 54%   Direction: 200°SSW
Pressure: 30"   Gusts: 17mph
Location:  34.9032°N, 88.3178°W
Report Text: KCRX 262135Z AUTO 20003G15KT 10SM -RA FEW035 SCT048 BKN055 09/M00 A3000 RMK AO2
Loading
Personal Weather Stations






























Interactive Weather Map New forecast layout! Learn more

10-Day Weather Forecast

Advertisements
Track Severe Weather on mobile